Time;durP1;ratioP1;P1;durP2;ratioP2;P2;SDS_P1;SDS_P2;PMS_P1;PMS_P2;Temp;Humidity;BMP_temperature;BMP_pressure;BME280_temperature;BME280_humidity;BME280_pressure;Samples;Min_cycle;Max_cycle;Signal;HPM_P1;HPM_P2
2023/10/12 00:02:00;;;;;;;3.38;1.20;;;16.90;99.90;;;;;;5093449;28;20040;-88
2023/10/12 00:04:50;;;;;;;1.85;0.52;;;16.90;99.90;;;;;;5077391;28;20036;-88
2023/10/12 00:07:17;;;;;;;4.22;0.90;;;16.80;99.90;;;;;;5077148;28;20035;-88
2023/10/12 00:09:48;;;;;;;4.85;0.90;;;16.70;99.90;;;;;;5076570;28;20036;-88
2023/10/12 00:12:23;;;;;;;3.00;0.70;;;16.70;99.90;;;;;;5085522;28;20050;-87
2023/10/12 00:14:49;;;;;;;5.63;1.20;;;16.60;99.90;;;;;;5076729;28;20031;-88
2023/10/12 00:17:17;;;;;;;7.32;1.35;;;16.60;99.90;;;;;;5077267;28;20506;-88
2023/10/12 00:19:44;;;;;;;5.00;1.20;;;16.50;99.90;;;;;;5093772;28;20040;-87
2023/10/12 00:22:11;;;;;;;4.13;0.77;;;16.50;99.90;;;;;;5096321;28;20043;-87
2023/10/12 00:24:38;;;;;;;5.18;1.30;;;16.40;99.90;;;;;;5080398;28;20089;-88
2023/10/12 00:27:05;;;;;;;6.35;1.05;;;16.30;99.90;;;;;;5079779;28;20035;-88
2023/10/12 00:29:33;;;;;;;7.57;1.63;;;16.20;99.90;;;;;;5097096;28;20439;-88
2023/10/12 00:31:59;;;;;;;7.45;1.70;;;16.20;99.90;;;;;;5080045;28;20145;-88
2023/10/12 00:34:28;;;;;;;2.55;0.68;;;16.20;99.90;;;;;;5080241;28;20043;-88
2023/10/12 00:36:53;;;;;;;5.25;0.90;;;16.10;99.90;;;;;;5097118;28;20047;-88
2023/10/12 00:39:56;;;;;;;8.10;1.75;;;16.00;99.90;;;;;;5097235;28;20123;-87
2023/10/12 00:42:05;;;;;;;7.90;1.90;;;16.00;99.90;;;;;;5096625;28;20047;-87
2023/10/12 00:44:34;;;;;;;7.18;1.80;;;16.00;99.90;;;;;;5080355;28;20050;-87
2023/10/12 00:47:12;;;;;;;7.57;1.92;;;16.00;99.90;;;;;;5079874;28;20036;-88
2023/10/12 00:49:41;;;;;;;4.75;1.00;;;16.00;99.90;;;;;;5079920;28;20035;-87
2023/10/12 00:52:23;;;;;;;3.83;0.90;;;15.90;99.90;;;;;;5096313;28;20031;-88
2023/10/12 00:54:55;;;;;;;6.80;1.63;;;15.80;99.90;;;;;;5096588;28;20175;-88
2023/10/12 00:57:22;;;;;;;4.32;0.90;;;15.80;99.90;;;;;;5096795;28;20040;-87
2023/10/12 00:59:51;;;;;;;8.93;1.90;;;15.70;99.90;;;;;;5095604;28;20039;-88
2023/10/12 01:02:30;;;;;;;7.38;1.92;;;15.70;99.90;;;;;;5079281;28;20039;-88
2023/10/12 01:05:04;;;;;;;8.70;2.03;;;15.70;99.90;;;;;;5079860;28;20068;-88
2023/10/12 01:07:34;;;;;;;11.27;2.08;;;15.70;99.90;;;;;;5083695;28;20043;-88
2023/10/12 01:10:07;;;;;;;7.80;1.80;;;15.70;99.90;;;;;;5085931;28;20613;-87
2023/10/12 01:12:34;;;;;;;;;;;15.70;99.90;;;;;;5080622;28;20040;-88
2023/10/12 01:15:08;;;;;;;7.75;1.65;;;15.60;99.90;;;;;;5096913;28;19939;-88
2023/10/12 01:17:35;;;;;;;4.82;1.05;;;15.60;99.90;;;;;;5084047;28;20036;-88
2023/10/12 01:20:21;;;;;;;7.13;0.85;;;15.50;99.90;;;;;;5086271;28;20039;-87
2023/10/12 01:22:47;;;;;;;5.88;1.58;;;15.40;99.90;;;;;;5079430;28;20100;-87
2023/10/12 01:25:20;;;;;;;5.55;1.25;;;15.40;99.90;;;;;;5078721;28;20043;-87
2023/10/12 01:27:49;;;;;;;8.18;1.73;;;15.40;99.90;;;;;;5096519;28;20043;-87
2023/10/12 01:30:22;;;;;;;10.00;2.13;;;15.40;99.90;;;;;;5078811;28;20039;-88
2023/10/12 01:32:57;;;;;;;9.48;1.90;;;15.50;99.90;;;;;;5094783;28;20032;-87
2023/10/12 01:35:27;;;;;;;5.47;1.33;;;15.40;99.90;;;;;;5096166;28;20035;-87
2023/10/12 01:38:00;;;;;;;10.70;2.50;;;15.30;99.90;;;;;;5079080;28;20066;-88
2023/10/12 01:43:14;;;;;;;9.13;1.98;;;15.20;99.90;;;;;;5095753;28;20047;-88
2023/10/12 01:45:43;;;;;;;7.55;1.80;;;15.20;99.90;;;;;;5095492;28;20071;-87
2023/10/12 01:48:11;;;;;;;6.03;1.17;;;15.10;99.90;;;;;;5078518;28;20120;-87
2023/10/12 01:50:38;;;;;;;8.60;1.80;;;15.10;99.90;;;;;;5095676;28;20488;-87
2023/10/12 01:53:24;;;;;;;7.15;1.42;;;15.00;99.90;;;;;;5078163;28;20084;-87
2023/10/12 01:55:51;;;;;;;11.45;2.40;;;15.00;99.90;;;;;;5095340;28;20043;-87
2023/10/12 01:58:21;;;;;;;11.93;2.60;;;15.00;99.90;;;;;;5078869;28;20040;-87
2023/10/12 02:00:52;;;;;;;9.18;2.45;;;15.00;99.90;;;;;;5078334;28;20046;-87
2023/10/12 02:06:01;;;;;;;11.02;2.45;;;14.90;99.90;;;;;;5095324;28;20123;-87
2023/10/12 02:08:39;;;;;;;9.52;2.47;;;14.90;99.90;;;;;;5094853;28;20035;-87
2023/10/12 02:11:11;;;;;;;8.02;1.95;;;14.80;99.90;;;;;;5095319;28;20039;-87
2023/10/12 02:13:37;;;;;;;6.32;1.38;;;14.80;99.90;;;;;;5078461;28;20407;-87
2023/10/12 02:16:04;;;;;;;6.75;1.48;;;14.80;99.90;;;;;;5095197;28;20071;-87
2023/10/12 02:18:34;;;;;;;4.88;1.15;;;14.60;99.90;;;;;;5095189;28;20141;-87
2023/10/12 02:21:11;;;;;;;6.03;1.13;;;14.60;99.90;;;;;;5077689;28;20046;-87
2023/10/12 02:23:39;;;;;;;8.45;2.15;;;14.50;99.90;;;;;;5077338;28;20035;-87
2023/10/12 02:28:53;;;;;;;6.40;1.10;;;14.70;99.90;;;;;;5097433;28;20047;-87
2023/10/12 02:31:28;;;;;;;9.35;2.40;;;14.60;99.90;;;;;;5077583;28;20044;-87
2023/10/12 02:33:54;;;;;;;9.77;2.17;;;14.60;99.90;;;;;;5077596;28;20040;-87
2023/10/12 02:36:20;;;;;;;11.70;2.40;;;14.60;99.90;;;;;;5094696;28;20051;-87
2023/10/12 02:38:45;;;;;;;4.45;0.90;;;14.60;99.90;;;;;;5094623;28;20568;-87
2023/10/12 02:41:13;;;;;;;8.95;2.30;;;14.60;99.90;;;;;;5094400;28;20027;-86
2023/10/12 02:43:43;;;;;;;9.05;2.33;;;14.50;99.90;;;;;;5077901;28;20051;-87
2023/10/12 02:46:21;;;;;;;9.25;2.22;;;14.60;99.90;;;;;;5077747;28;20058;-87
2023/10/12 02:48:47;;;;;;;5.20;1.27;;;14.50;99.90;;;;;;5094817;28;20184;-88
2023/10/12 02:51:16;;;;;;;4.45;1.25;;;14.40;99.90;;;;;;5077884;28;20039;-88
2023/10/12 02:53:42;;;;;;;11.48;2.65;;;14.30;99.90;;;;;;5077703;28;20527;-88
2023/10/12 02:56:08;;;;;;;8.38;1.58;;;14.40;99.90;;;;;;5077032;28;20044;-87
2023/10/12 02:58:33;;;;;;;9.55;2.38;;;14.30;99.90;;;;;;5077378;28;20042;-88
2023/10/12 03:01:21;;;;;;;11.38;3.13;;;14.40;99.90;;;;;;5077430;28;20494;-87
2023/10/12 03:03:54;;;;;;;6.72;1.67;;;14.40;99.90;;;;;;5094207;28;20040;-87
2023/10/12 03:06:23;;;;;;;14.82;3.33;;;14.30;99.90;;;;;;5076919;28;20035;-87
2023/10/12 03:11:31;;;;;;;13.27;3.25;;;14.20;99.90;;;;;;5094348;28;20055;-87
2023/10/12 03:14:00;;;;;;;6.22;1.45;;;14.30;99.90;;;;;;5094167;28;20452;-88
2023/10/12 03:16:41;;;;;;;9.85;1.73;;;14.20;99.90;;;;;;5077464;28;20036;-87
2023/10/12 03:19:17;;;;;;;5.97;1.50;;;14.10;99.90;;;;;;5085609;28;20074;-87
2023/10/12 03:21:49;;;;;;;4.68;1.10;;;14.10;99.90;;;;;;5077288;28;20498;-87
2023/10/12 03:24:16;;;;;;;6.65;1.80;;;14.10;99.90;;;;;;5094193;28;20039;-87
2023/10/12 03:29:28;;;;;;;13.18;3.55;;;14.10;99.90;;;;;;5096846;28;20533;-87
2023/10/12 03:31:57;;;;;;;11.38;3.15;;;14.10;99.90;;;;;;5095757;28;20069;-87
2023/10/12 03:34:35;;;;;;;5.50;1.30;;;14.20;99.90;;;;;;5095221;28;20440;-87
2023/10/12 03:37:06;;;;;;;5.60;1.00;;;14.10;99.90;;;;;;5086601;28;20384;-87
2023/10/12 03:39:43;;;;;;;6.13;1.80;;;14.10;99.90;;;;;;5097249;28;20035;-87
2023/10/12 03:47:23;;;;;;;5.70;1.23;;;14.10;99.90;;;;;;5111248;28;20047;-87
2023/10/12 03:52:39;;;;;;;10.07;3.00;;;14.00;99.90;;;;;;5101079;28;20043;-87
2023/10/12 04:05:17;;;;;;;6.45;1.90;;;13.90;99.90;;;;;;5097486;28;20132;-87
2023/10/12 04:21:17;;;;;;;6.70;1.42;;;13.90;99.90;;;;;;5096799;28;20071;-87
2023/10/12 04:24:27;;;;;;;9.95;3.13;;;13.90;99.90;;;;;;5079876;28;20072;-87
2023/10/12 04:29:21;;;;;;;10.10;3.33;;;13.90;99.90;;;;;;5096431;28;20047;-88
2023/10/12 04:31:50;;;;;;;12.13;3.63;;;13.90;99.90;;;;;;5102298;28;20120;-87
2023/10/12 04:34:17;;;;;;;9.07;2.30;;;14.00;99.90;;;;;;5071842;28;20039;-87
2023/10/12 04:39:27;;;;;;;5.30;1.42;;;14.00;99.90;;;;;;5096082;28;20039;-87
2023/10/12 04:46:58;;;;;;;5.60;1.60;;;13.90;99.90;;;;;;5094522;28;20051;-87
2023/10/12 04:58:09;;;;;;;7.25;2.25;;;13.90;99.90;;;;;;4995447;28;20046;-87
2023/10/12 05:00:48;;;;;;;7.90;2.15;;;13.90;99.90;;;;;;4995451;28;20132;-87
2023/10/12 05:03:24;;;;;;;8.05;1.63;;;13.80;99.90;;;;;;5064098;28;20498;-86
2023/10/12 05:06:04;;;;;;;11.27;3.65;;;13.80;99.90;;;;;;5079484;28;20039;-87
2023/10/12 05:08:31;;;;;;;11.55;3.85;;;13.90;99.90;;;;;;5078853;28;20093;-87
2023/10/12 05:10:57;;;;;;;6.38;1.27;;;14.00;99.90;;;;;;5078716;28;20036;-87
2023/10/12 05:13:23;;;;;;;6.70;1.77;;;13.90;99.90;;;;;;5095779;28;20081;-87
2023/10/12 05:15:54;;;;;;;12.18;4.18;;;13.90;99.90;;;;;;5095762;28;20093;-86
2023/10/12 05:18:22;;;;;;;6.45;1.75;;;13.90;99.90;;;;;;5079105;28;20063;-87
2023/10/12 05:20:47;;;;;;;12.27;1.85;;;13.90;99.90;;;;;;5095567;28;20410;-90
2023/10/12 05:23:13;;;;;;;14.65;4.20;;;13.80;99.90;;;;;;5078934;28;20044;-87
2023/10/12 05:28:30;;;;;;;8.85;2.22;;;13.90;99.90;;;;;;5095473;28;20051;-87
2023/10/12 05:31:09;;;;;;;8.02;1.77;;;13.90;99.90;;;;;;5078689;28;20122;-87
2023/10/12 05:36:10;;;;;;;7.15;2.13;;;13.80;99.90;;;;;;5095186;28;20513;-87
2023/10/12 05:38:40;;;;;;;11.38;3.50;;;13.80;99.90;;;;;;5095221;28;20088;-87
2023/10/12 05:41:10;;;;;;;11.25;2.70;;;13.90;99.90;;;;;;5077370;28;20066;-87
2023/10/12 05:43:40;;;;;;;12.15;1.90;;;13.90;99.90;;;;;;5094621;28;20130;-86
2023/10/12 05:46:13;;;;;;;8.32;2.08;;;13.90;99.90;;;;;;5078272;28;20047;-86
2023/10/12 05:48:46;;;;;;;10.10;2.30;;;13.80;99.90;;;;;;5078098;28;20070;-87
2023/10/12 05:51:19;;;;;;;;;;;13.80;99.90;;;;;;5095261;28;20050;-86
2023/10/12 05:53:45;;;;;;;11.77;4.35;;;13.80;99.90;;;;;;5082654;28;19920;-87
2023/10/12 05:56:10;;;;;;;15.35;4.80;;;13.80;99.90;;;;;;5078766;28;20036;-87
2023/10/12 05:58:40;;;;;;;11.98;4.25;;;13.90;99.90;;;;;;5095198;28;20126;-87
2023/10/12 06:01:08;;;;;;;11.75;4.63;;;14.00;99.90;;;;;;5077685;28;20509;-86
2023/10/12 06:03:39;;;;;;;11.88;4.28;;;14.00;99.90;;;;;;5100394;28;20119;-87
2023/10/12 06:06:06;;;;;;;8.45;2.05;;;14.00;99.90;;;;;;5102736;28;20093;-87
2023/10/12 06:08:34;;;;;;;12.05;4.93;;;13.90;99.90;;;;;;5086601;28;20123;-87
2023/10/12 06:11:01;;;;;;;16.92;5.18;;;14.00;99.90;;;;;;5084760;28;20440;-86
2023/10/12 06:13:32;;;;;;;10.05;2.38;;;14.00;99.90;;;;;;5105426;28;20387;-86
2023/10/12 06:15:58;;;;;;;6.70;1.90;;;13.90;99.90;;;;;;5086520;28;20035;-86
2023/10/12 06:18:31;;;;;;;12.75;4.88;;;13.90;99.90;;;;;;5105563;28;20367;-86
2023/10/12 06:21:06;;;;;;;12.18;5.15;;;13.90;99.90;;;;;;5101841;28;20461;-86
2023/10/12 06:23:32;;;;;;;10.68;2.33;;;13.90;99.90;;;;;;5108918;27;20046;-86
2023/10/12 06:25:57;;;;;;;7.47;2.03;;;13.90;99.90;;;;;;5106916;28;20044;-86
2023/10/12 06:28:25;;;;;;;4.03;1.50;;;13.80;99.90;;;;;;5097320;28;20078;-86
2023/10/12 06:30:52;;;;;;;11.43;4.28;;;13.80;99.90;;;;;;5093440;28;20043;-87
2023/10/12 06:33:22;;;;;;;6.93;1.85;;;13.80;99.90;;;;;;5094708;28;20047;-87
2023/10/12 06:36:01;;;;;;;11.65;3.80;;;13.80;99.90;;;;;;5076585;28;20089;-87
2023/10/12 06:46:48;;;;;;;13.00;5.35;;;13.80;99.90;;;;;;5094177;28;20418;-87
2023/10/12 06:49:24;;;;;;;14.27;6.20;;;13.80;99.90;;;;;;5093361;28;20444;-87
2023/10/12 06:52:02;;;;;;;10.73;2.63;;;13.90;99.90;;;;;;5076917;28;20479;-87
2023/10/12 06:54:32;;;;;;;14.73;5.68;;;13.80;99.90;;;;;;5093853;28;20035;-87
2023/10/12 07:02:29;;;;;;;9.38;2.13;;;13.80;99.90;;;;;;5093559;28;20066;-87
2023/10/12 07:05:01;;;;;;;6.78;2.25;;;13.80;99.90;;;;;;5076989;28;20410;-87
2023/10/12 07:07:51;;;;;;;9.40;3.40;;;13.80;99.90;;;;;;5093919;28;20075;-87
2023/10/12 07:10:27;;;;;;;15.00;5.68;;;13.70;99.90;;;;;;5092902;28;20129;-87
2023/10/12 07:12:52;;;;;;;12.32;5.30;;;13.80;99.90;;;;;;5076716;28;20063;-87
2023/10/12 07:15:25;;;;;;;8.07;2.08;;;13.90;99.90;;;;;;5076871;28;20035;-87
2023/10/12 07:17:52;;;;;;;6.82;2.10;;;13.90;99.90;;;;;;5099394;28;20051;-87
2023/10/12 07:23:14;;;;;;;13.20;2.78;;;13.90;99.90;;;;;;5099969;28;20079;-87
2023/10/12 07:25:48;;;;;;;7.30;2.03;;;13.80;99.90;;;;;;5097960;28;20143;-87
2023/10/12 07:28:32;;;;;;;9.00;2.05;;;13.80;99.90;;;;;;5068784;28;20039;-86
2023/10/12 07:31:38;;;;;;;8.00;2.58;;;13.80;99.90;;;;;;5094626;28;20047;-86
2023/10/12 07:41:53;;;;;;;6.30;2.08;;;13.90;99.90;;;;;;5097744;28;20039;-87
2023/10/12 07:44:21;;;;;;;8.63;2.45;;;13.90;99.90;;;;;;5097626;28;20039;-86
2023/10/12 07:46:46;;;;;;;13.90;5.60;;;13.90;99.90;;;;;;5080579;28;20579;-87
2023/10/12 07:52:38;;;;;;;8.90;2.40;;;14.00;99.90;;;;;;5097476;28;20469;-87
2023/10/12 07:54:57;;;;;;;9.65;2.38;;;14.10;99.90;;;;;;5086170;28;20048;-87
2023/10/12 07:57:23;;;;;;;7.78;2.38;;;14.10;99.90;;;;;;5090588;28;20132;-87
2023/10/12 07:59:59;;;;;;;16.02;5.13;;;14.20;99.90;;;;;;5096745;28;20046;-88
2023/10/12 08:05:18;;;;;;;8.02;2.13;;;14.50;99.90;;;;;;5115176;28;20108;-87
2023/10/12 08:13:05;;;;;;;8.00;1.75;;;14.80;99.90;;;;;;5104509;27;20039;-87
2023/10/12 08:15:49;;;;;;;9.30;1.98;;;14.80;99.90;;;;;;5108924;27;20067;-88
2023/10/12 08:21:02;;;;;;;13.38;3.55;;;14.80;99.90;;;;;;5045988;28;20535;-88
2023/10/12 08:23:28;;;;;;;16.20;3.45;;;14.90;99.90;;;;;;5096307;28;20050;-88
2023/10/12 08:26:02;;;;;;;15.35;3.45;;;15.00;99.90;;;;;;5101874;28;20418;-88
2023/10/12 08:28:36;;;;;;;16.58;3.55;;;15.10;99.90;;;;;;5095816;28;20050;-88
2023/10/12 08:31:15;;;;;;;8.48;1.63;;;15.10;99.90;;;;;;5083212;28;20271;-88
2023/10/12 08:33:58;;;;;;;8.50;1.60;;;15.10;99.90;;;;;;5086385;28;20562;-88
2023/10/12 08:36:23;;;;;;;8.88;1.55;;;15.00;99.90;;;;;;5075005;28;20078;-88
2023/10/12 08:39:07;;;;;;;10.48;1.67;;;15.00;99.90;;;;;;5105213;28;20509;-88
2023/10/12 08:44:19;;;;;;;16.35;4.50;;;15.00;99.90;;;;;;5102957;28;20067;-88
2023/10/12 08:52:05;;;;;;;16.92;5.68;;;15.10;99.90;;;;;;5097307;28;20047;-87
2023/10/12 08:54:38;;;;;;;6.50;2.28;;;15.20;99.90;;;;;;5092028;28;20035;-87
2023/10/12 08:57:43;;;;;;;15.00;3.85;;;15.10;99.90;;;;;;5098006;28;20042;-88
2023/10/12 09:00:20;;;;;;;12.30;2.95;;;15.10;99.90;;;;;;5078612;28;20075;-88
2023/10/12 09:02:53;;;;;;;8.13;1.50;;;15.10;99.90;;;;;;5087256;28;20043;-88
2023/10/12 09:05:33;;;;;;;14.82;3.10;;;15.10;99.90;;;;;;5096359;28;20506;-88
2023/10/12 09:08:08;;;;;;;9.88;1.65;;;15.10;99.90;;;;;;5087352;28;20075;-88
2023/10/12 09:10:54;;;;;;;13.27;2.60;;;15.00;99.90;;;;;;5104814;28;20039;-88
2023/10/12 09:13:24;;;;;;;8.38;1.25;;;15.00;99.90;;;;;;5100274;28;20078;-89
2023/10/12 09:15:54;;;;;;;13.23;2.75;;;15.00;99.90;;;;;;5081498;28;20046;-89
2023/10/12 09:18:25;;;;;;;6.72;1.17;;;15.00;99.90;;;;;;5077791;28;20475;-88
2023/10/12 09:23:46;;;;;;;12.13;2.70;;;15.00;99.90;;;;;;5059072;28;1079211;-88
2023/10/12 09:26:15;;;;;;;9.70;1.70;;;15.10;99.90;;;;;;5096110;28;20060;-88
2023/10/12 09:31:15;;;;;;;12.27;3.17;;;15.00;99.90;;;;;;5104148;28;20518;-87
2023/10/12 09:36:27;;;;;;;5.47;1.00;;;15.20;99.90;;;;;;5103036;27;20071;-87
2023/10/12 09:38:56;;;;;;;14.43;2.60;;;15.10;99.90;;;;;;5106748;28;20118;-87
2023/10/12 09:41:28;;;;;;;12.20;2.88;;;15.20;99.90;;;;;;5090827;27;20054;-87
2023/10/12 09:43:56;;;;;;;15.00;2.63;;;15.20;99.90;;;;;;5086746;28;20047;-88
2023/10/12 09:46:27;;;;;;;9.43;1.83;;;15.20;99.90;;;;;;5102443;28;20495;-88
2023/10/12 09:49:02;;;;;;;12.18;2.97;;;15.20;99.90;;;;;;5078224;28;20506;-88
2023/10/12 09:51:35;;;;;;;11.07;2.38;;;15.30;99.90;;;;;;5078496;28;20062;-88
2023/10/12 09:54:05;;;;;;;12.00;1.85;;;15.30;99.90;;;;;;5077125;28;20043;-88
2023/10/12 09:56:44;;;;;;;15.95;3.08;;;15.30;99.90;;;;;;5078517;28;20407;-88
2023/10/12 09:59:13;;;;;;;12.05;2.58;;;15.40;99.90;;;;;;5086457;28;20114;-89
2023/10/12 10:09:54;;;;;;;;;;;15.70;99.90;;;;;;5095295;28;20043;-88
2023/10/12 10:12:22;;;;;;;10.45;2.72;;;15.60;99.90;;;;;;5077897;28;20010;-88
2023/10/12 10:14:54;;;;;;;7.15;1.40;;;15.60;99.90;;;;;;5077959;28;20516;-88
2023/10/12 10:17:27;;;;;;;15.18;3.15;;;15.70;99.90;;;;;;5078899;28;20507;-88
2023/10/12 10:23:11;;;;;;;11.43;1.65;;;15.70;99.90;;;;;;5051394;28;20043;-88
2023/10/12 10:25:47;;;;;;;7.35;1.95;;;15.70;99.90;;;;;;5082842;28;20043;-88
2023/10/12 10:28:23;;;;;;;12.55;3.17;;;15.80;99.90;;;;;;5086083;28;20039;-88
2023/10/12 10:30:52;;;;;;;12.75;3.03;;;15.90;99.90;;;;;;5077257;28;20057;-88
2023/10/12 10:33:22;;;;;;;17.15;3.75;;;16.00;99.90;;;;;;5086131;27;20379;-88
2023/10/12 10:36:17;;;;;;;12.27;2.92;;;16.00;99.90;;;;;;5100216;28;20085;-87
2023/10/12 10:41:18;;;;;;;14.50;3.15;;;16.10;99.90;;;;;;5094538;28;20052;-88
2023/10/12 10:43:44;;;;;;;8.40;1.38;;;16.10;99.90;;;;;;5077197;28;20043;-89
2023/10/12 10:46:10;;;;;;;11.45;2.88;;;16.10;99.90;;;;;;5077093;28;20043;-88
2023/10/12 10:48:49;;;;;;;15.85;3.58;;;16.10;99.90;;;;;;5077615;28;20043;-88
2023/10/12 10:51:19;;;;;;;14.23;4.88;;;16.10;99.90;;;;;;5077500;27;20032;-88
2023/10/12 10:53:52;;;;;;;17.77;5.75;;;16.20;99.90;;;;;;5105191;28;20069;-88
2023/10/12 10:56:34;;;;;;;12.52;3.53;;;16.20;99.90;;;;;;5086356;27;20054;-88
2023/10/12 10:59:07;;;;;;;17.63;3.15;;;16.20;99.90;;;;;;5076723;28;20032;-87
2023/10/12 11:01:32;;;;;;;12.77;2.50;;;16.20;99.90;;;;;;5085244;27;20071;-87
2023/10/12 11:04:00;;;;;;;12.82;2.78;;;16.30;99.90;;;;;;5103550;28;20410;-88
2023/10/12 11:06:30;;;;;;;6.30;1.35;;;16.20;99.90;;;;;;5087740;27;20375;-89
2023/10/12 11:09:09;;;;;;;13.40;2.75;;;16.20;99.90;;;;;;5104536;28;20075;-89
2023/10/12 11:11:44;;;;;;;11.77;2.33;;;16.20;99.90;;;;;;5094026;28;20044;-89
2023/10/12 11:14:12;;;;;;;15.30;2.70;;;16.20;99.90;;;;;;5077577;28;20038;-89
2023/10/12 11:16:38;;;;;;;15.23;3.00;;;16.20;99.90;;;;;;5078462;28;20031;-89
2023/10/12 11:19:09;;;;;;;11.35;2.08;;;16.30;99.90;;;;;;5086432;28;20027;-88
2023/10/12 11:21:34;;;;;;;10.90;2.15;;;16.30;99.90;;;;;;5103221;28;20035;-89
2023/10/12 11:24:01;;;;;;;9.95;2.60;;;16.20;99.90;;;;;;5088040;28;20039;-89
2023/10/12 11:26:39;;;;;;;12.30;2.78;;;16.30;99.90;;;;;;5104115;28;20031;-89
2023/10/12 11:29:11;;;;;;;9.18;1.48;;;16.30;99.90;;;;;;5104409;28;20039;-89
2023/10/12 11:31:37;;;;;;;11.80;2.73;;;16.30;99.90;;;;;;5106218;28;20047;-89
2023/10/12 11:34:11;;;;;;;12.20;2.75;;;16.30;99.90;;;;;;5087391;28;20035;-89
2023/10/12 11:36:37;;;;;;;6.70;1.27;;;16.40;99.90;;;;;;5103949;28;20046;-89
2023/10/12 11:39:16;;;;;;;7.88;1.88;;;16.30;99.90;;;;;;5084138;28;20038;-88
2023/10/12 11:42:02;;;;;;;12.82;2.50;;;16.30;99.90;;;;;;5085931;28;20404;-89
2023/10/12 11:44:32;;;;;;;12.80;2.53;;;16.30;99.90;;;;;;5087301;28;20035;-89
2023/10/12 11:46:59;;;;;;;12.93;2.53;;;16.30;99.90;;;;;;5086223;28;20090;-89
2023/10/12 11:49:24;;;;;;;12.52;3.67;;;16.30;99.90;;;;;;5085358;28;20038;-89
2023/10/12 11:51:53;;;;;;;12.45;2.80;;;16.30;99.90;;;;;;5085794;28;20075;-89
2023/10/12 11:54:22;;;;;;;6.80;1.40;;;16.30;99.90;;;;;;5087457;28;20044;-89
2023/10/12 11:56:49;;;;;;;13.00;2.50;;;16.20;99.90;;;;;;5086367;28;20035;-88
2023/10/12 11:59:22;;;;;;;12.45;2.80;;;16.20;99.90;;;;;;5103300;28;20110;-89
2023/10/12 12:01:54;;;;;;;12.52;2.92;;;16.20;99.90;;;;;;5100691;28;20036;-89
2023/10/12 12:04:24;;;;;;;7.32;1.42;;;16.20;99.90;;;;;;5083319;28;20046;-88
2023/10/12 12:06:50;;;;;;;14.63;2.90;;;16.20;99.90;;;;;;5092881;28;20035;-89
2023/10/12 12:09:17;;;;;;;16.02;3.13;;;16.10;99.90;;;;;;5076331;28;20046;-89
2023/10/12 12:11:43;;;;;;;13.38;2.78;;;16.20;99.90;;;;;;5093354;28;20048;-88
2023/10/12 12:14:08;;;;;;;8.57;1.58;;;16.20;99.90;;;;;;5101090;28;20042;-88
2023/10/12 12:16:34;;;;;;;5.93;1.60;;;16.10;99.90;;;;;;5085389;28;20410;-88
2023/10/12 12:19:00;;;;;;;7.32;1.67;;;16.10;99.90;;;;;;5096801;28;20032;-89
2023/10/12 12:21:34;;;;;;;14.07;2.53;;;16.00;99.90;;;;;;5089027;28;20027;-88
2023/10/12 12:24:44;;;;;;;11.70;2.75;;;16.10;99.90;;;;;;5103481;28;20043;-88
2023/10/12 12:26:53;;;;;;;12.55;2.70;;;16.10;99.90;;;;;;5105410;28;20440;-88
2023/10/12 12:29:23;;;;;;;13.30;2.65;;;16.00;99.90;;;;;;5079690;28;20067;-88
2023/10/12 12:31:49;;;;;;;13.13;3.10;;;16.00;99.90;;;;;;5080140;28;20403;-89
2023/10/12 12:34:34;;;;;;;6.50;2.13;;;15.90;99.90;;;;;;5087878;28;20483;-88
2023/10/12 12:37:01;;;;;;;12.43;2.55;;;15.80;99.90;;;;;;5080278;28;20063;-89
2023/10/12 12:39:32;;;;;;;13.57;3.35;;;15.80;99.90;;;;;;5079567;28;20031;-88
2023/10/12 12:41:58;;;;;;;6.38;1.75;;;15.80;99.90;;;;;;5096549;28;20132;-88
2023/10/12 12:44:23;;;;;;;12.55;3.17;;;15.70;99.90;;;;;;5079873;28;20081;-88
2023/10/12 12:46:49;;;;;;;9.90;2.30;;;15.70;99.90;;;;;;5079841;28;20051;-89
2023/10/12 12:49:15;;;;;;;9.82;2.10;;;15.60;99.90;;;;;;5079307;28;20049;-88
2023/10/12 12:51:41;;;;;;;12.18;3.00;;;15.60;99.90;;;;;;5079746;28;20126;-89
2023/10/12 12:54:07;;;;;;;12.63;3.42;;;15.60;99.90;;;;;;5104263;28;20498;-88
2023/10/12 12:56:33;;;;;;;10.50;1.70;;;15.50;99.90;;;;;;5080326;28;20043;-88
2023/10/12 12:58:59;;;;;;;14.13;2.97;;;15.40;99.90;;;;;;5104617;28;20039;-89
2023/10/12 13:01:27;;;;;;;13.77;2.88;;;15.30;99.90;;;;;;5097888;28;20084;-89
2023/10/12 13:03:56;;;;;;;5.25;1.30;;;15.30;99.90;;;;;;5099328;28;20062;-89
2023/10/12 13:06:22;;;;;;;11.30;2.50;;;15.10;99.90;;;;;;5103126;28;20063;-89
2023/10/12 13:08:48;;;;;;;12.05;2.80;;;15.20;99.90;;;;;;5079177;28;20506;-88
2023/10/12 13:11:21;;;;;;;11.93;2.92;;;15.20;99.90;;;;;;5087490;28;20077;-88
2023/10/12 13:13:49;;;;;;;8.20;1.67;;;15.10;99.90;;;;;;5095748;28;20039;-88
2023/10/12 13:16:15;;;;;;;7.30;1.67;;;15.10;99.90;;;;;;5087747;28;20032;-88
2023/10/12 13:18:46;;;;;;;14.00;3.05;;;15.00;99.90;;;;;;5096025;28;20028;-88
2023/10/12 13:21:14;;;;;;;7.25;1.20;;;15.10;99.90;;;;;;5078576;28;20157;-88
2023/10/12 13:23:41;;;;;;;12.43;2.50;;;15.10;99.90;;;;;;5082719;28;20126;-88
2023/10/12 13:26:07;;;;;;;15.15;3.13;;;15.10;99.90;;;;;;5080133;28;20533;-89
2023/10/12 13:28:34;;;;;;;6.00;1.52;;;15.20;99.90;;;;;;5077594;28;20044;-88
2023/10/12 13:30:59;;;;;;;14.80;2.83;;;15.10;99.90;;;;;;5078573;28;20044;-88
2023/10/12 13:33:27;;;;;;;5.22;1.17;;;15.10;99.90;;;;;;5095509;28;20046;-88
2023/10/12 13:35:56;;;;;;;7.65;2.00;;;15.00;99.90;;;;;;5095534;28;20036;-88
2023/10/12 13:38:22;;;;;;;14.52;2.95;;;15.00;99.90;;;;;;5078674;28;20043;-87
2023/10/12 13:40:49;;;;;;;15.57;3.42;;;15.00;99.90;;;;;;5078737;28;20123;-87
2023/10/12 13:43:14;;;;;;;14.23;3.33;;;15.00;99.90;;;;;;5079159;28;20114;-87
2023/10/12 13:45:47;;;;;;;12.65;3.00;;;15.00;99.90;;;;;;5078709;28;20481;-87
2023/10/12 13:48:13;;;;;;;8.63;1.75;;;15.00;99.90;;;;;;5086735;28;20039;-87
2023/10/12 13:50:39;;;;;;;13.00;2.85;;;15.00;99.90;;;;;;5078531;28;20550;-86
2023/10/12 13:53:05;;;;;;;12.23;3.08;;;15.00;99.90;;;;;;5095368;28;20111;-86
2023/10/12 13:55:32;;;;;;;10.85;3.15;;;15.00;99.90;;;;;;5095513;28;20437;-87
2023/10/12 13:58:00;;;;;;;5.70;1.80;;;15.00;99.90;;;;;;5079354;28;20067;-88
2023/10/12 14:00:25;;;;;;;11.40;3.67;;;15.00;99.90;;;;;;5103887;28;20567;-87
2023/10/12 14:02:59;;;;;;;13.55;3.60;;;15.00;99.90;;;;;;5096903;28;20039;-87
2023/10/12 14:05:27;;;;;;;6.45;1.70;;;14.90;99.90;;;;;;5080803;28;20139;-87
2023/10/12 14:07:54;;;;;;;14.75;3.47;;;14.80;99.90;;;;;;5121654;28;20026;-87
2023/10/12 14:10:21;;;;;;;8.45;2.50;;;14.90;99.90;;;;;;5083391;28;20047;-87
2023/10/12 14:12:47;;;;;;;12.07;3.20;;;14.80;99.90;;;;;;5097495;27;20043;-88
2023/10/12 14:15:13;;;;;;;13.85;3.47;;;14.80;99.90;;;;;;5084560;28;20444;-88
2023/10/12 14:17:39;;;;;;;5.75;2.00;;;14.80;99.90;;;;;;5086331;28;20556;-88
2023/10/12 14:20:05;;;;;;;11.25;3.15;;;14.70;99.90;;;;;;5077968;28;20067;-88
2023/10/12 14:22:33;;;;;;;7.13;1.52;;;14.70;99.90;;;;;;5100366;27;20525;-88
2023/10/12 14:25:03;;;;;;;13.27;3.60;;;14.60;99.90;;;;;;5083594;28;20080;-87
2023/10/12 14:27:28;;;;;;;5.60;1.45;;;14.60;99.90;;;;;;5102493;27;20030;-88
2023/10/12 14:29:54;;;;;;;13.93;4.53;;;14.60;99.90;;;;;;5099896;27;20073;-88
2023/10/12 14:32:23;;;;;;;10.43;2.25;;;14.60;99.90;;;;;;5102060;27;20053;-88
2023/10/12 14:34:48;;;;;;;13.80;3.90;;;14.50;99.90;;;;;;5100179;27;20032;-88
2023/10/12 14:37:14;;;;;;;12.85;3.97;;;14.60;99.90;;;;;;5083914;27;20035;-88
2023/10/12 14:39:40;;;;;;;8.60;1.67;;;14.60;99.90;;;;;;5101156;27;20035;-88
2023/10/12 14:42:06;;;;;;;12.93;3.50;;;14.50;99.90;;;;;;5099846;27;20024;-88
2023/10/12 14:44:33;;;;;;;14.55;4.15;;;14.50;99.90;;;;;;5085611;27;20041;-88
2023/10/12 14:47:05;;;;;;;8.18;1.80;;;14.60;99.90;;;;;;5100927;27;20046;-88
2023/10/12 14:49:33;;;;;;;10.98;2.67;;;14.50;99.90;;;;;;5102184;27;20035;-88
2023/10/12 14:52:00;;;;;;;8.05;1.80;;;14.40;99.90;;;;;;5101650;27;20509;-88
2023/10/12 14:54:27;;;;;;;13.57;4.25;;;14.40;99.90;;;;;;5084667;28;20429;-88
2023/10/12 14:56:53;;;;;;;10.68;2.13;;;14.30;99.90;;;;;;5096671;28;20063;-87
2023/10/12 14:59:19;;;;;;;9.63;2.13;;;14.30;99.90;;;;;;5082461;28;20062;-87
2023/10/12 15:01:45;;;;;;;8.32;2.13;;;14.30;99.90;;;;;;5105073;27;20068;-87
2023/10/12 15:04:11;;;;;;;7.13;2.10;;;14.30;99.90;;;;;;5083020;28;20035;-87
2023/10/12 15:06:37;;;;;;;12.98;3.90;;;14.30;99.90;;;;;;5084929;28;20035;-88
2023/10/12 15:09:10;;;;;;;13.43;4.53;;;14.30;99.90;;;;;;5117322;27;20115;-87
2023/10/12 15:11:36;;;;;;;15.27;4.47;;;14.40;99.90;;;;;;5083885;28;20043;-87
2023/10/12 15:14:01;;;;;;;12.60;3.65;;;14.40;99.90;;;;;;5082584;28;20035;-87
2023/10/12 15:16:30;;;;;;;9.15;2.30;;;14.40;99.90;;;;;;5102544;28;20031;-87
2023/10/12 15:18:57;;;;;;;11.90;2.80;;;14.40;99.90;;;;;;5082537;28;20027;-87